Terminal Aerodrome Forecast
Issued by NWS Shreveport, LA

Home | Current Version | Previous Version | Text Only | Print | Product List | Glossary On
Versions: 1 2 3 4 5 6 7 8 9 10 11 12 13 14 15 16
000
FTUS44 KSHV 280532
TAFGGG
TAF
KGGG 280532Z 2806/2906 19012KT P6SM SCT250
     FM280900 17010KT P6SM BKN025
     FM281400 19012G18KT P6SM SCT035 BKN150
     FM282100 22008KT P6SM VCTS OVC050CB
     FM290300 01003KT P6SM OVC050=

USA.gov is the U.S. government's official web portal to all federal, state and local government web resources and services.